Time;durP1;ratioP1;P1;durP2;ratioP2;P2;SDS_P1;SDS_P2;PMS_P1;PMS_P2;Temp;Humidity;BMP_temperature;BMP_pressure;BME280_temperature;BME280_humidity;BME280_pressure;Samples;Min_cycle;Max_cycle;Signal;HPM_P1;HPM_P2
2022/07/31 00:00:55;;;;;;;;;5.25;5.25;;;;;24.59;36.14;99338.38;5054716;28;45695;-62
2022/07/31 00:03:20;;;;;;;;;6.50;6.00;;;;;24.57;35.90;99340.34;5051573;28;45500;-62
2022/07/31 00:05:45;;;;;;;;;5.00;4.75;;;;;24.56;35.87;99342.19;5054889;28;45408;-62
2022/07/31 00:08:11;;;;;;;;;5.50;5.50;;;;;24.54;36.16;99349.56;5050297;28;45402;-62
2022/07/31 00:10:36;;;;;;;;;6.25;6.00;;;;;24.45;36.64;99349.59;5052177;28;46294;-62
2022/07/31 00:13:02;;;;;;;;;6.00;6.00;;;;;24.34;36.93;99348.75;5052897;28;45401;-62
2022/07/31 00:15:27;;;;;;;;;5.00;5.00;;;;;24.29;37.21;99351.03;5055139;28;45442;-62
2022/07/31 00:17:53;;;;;;;;;6.00;6.00;;;;;24.24;37.28;99355.16;5050212;28;45417;-62
2022/07/31 00:20:18;;;;;;;;;5.75;5.75;;;;;24.20;38.31;99361.75;5054863;28;45700;-62
2022/07/31 00:22:45;;;;;;;;;5.75;5.75;;;;;24.10;38.24;99372.56;5053075;28;45447;-62
2022/07/31 00:25:12;;;;;;;;;6.00;6.00;;;;;24.03;39.00;99366.00;5052849;28;45464;-62
2022/07/31 00:27:39;;;;;;;;;7.00;5.75;;;;;23.97;38.81;99371.94;5053108;28;45511;-62
2022/07/31 00:30:06;;;;;;;;;5.25;5.00;;;;;23.93;38.83;99370.56;5052566;28;45435;-62
2022/07/31 00:32:31;;;;;;;;;6.75;6.75;;;;;23.88;38.63;99370.13;5051242;28;45338;-62
2022/07/31 00:34:56;;;;;;;;;6.75;6.00;;;;;23.81;38.68;99369.81;5054878;28;45596;-62
2022/07/31 00:37:22;;;;;;;;;7.75;6.75;;;;;23.72;38.96;99376.03;5050798;28;45366;-62
2022/07/31 00:39:48;;;;;;;;;6.75;5.25;;;;;23.65;39.18;99374.88;5050356;27;46111;-62
2022/07/31 00:42:21;;;;;;;;;6.00;6.00;;;;;23.57;39.16;99377.41;5046847;28;45459;-62
2022/07/31 00:44:48;;;;;;;;;7.75;6.00;;;;;23.54;38.67;99386.63;5051843;28;45583;-61
2022/07/31 00:47:14;;;;;;;;;6.00;6.00;;;;;23.52;40.00;99380.50;5052392;28;45527;-60
2022/07/31 00:49:39;;;;;;;;;6.25;6.25;;;;;23.48;40.23;99384.44;5052438;28;45478;-61
2022/07/31 00:52:05;;;;;;;;;6.00;5.00;;;;;23.45;39.92;99391.94;5052560;28;45381;-61
2022/07/31 00:54:32;;;;;;;;;6.00;6.00;;;;;23.42;39.56;99394.91;5047301;28;45430;-61
2022/07/31 00:56:57;;;;;;;;;6.00;5.25;;;;;23.40;39.20;99394.19;5049723;28;46249;-61
2022/07/31 00:59:22;;;;;;;;;9.75;8.00;;;;;23.39;39.35;99396.03;5052354;28;45506;-61
2022/07/31 01:01:48;;;;;;;;;9.50;8.00;;;;;23.41;39.31;99401.28;5052215;28;45511;-61
2022/07/31 01:04:17;;;;;;;;;5.50;5.50;;;;;23.41;39.97;99396.75;5045535;28;45438;-61
2022/07/31 01:06:43;;;;;;;;;7.75;6.25;;;;;23.39;40.16;99406.78;5051886;28;45422;-61
2022/07/31 01:09:09;;;;;;;;;7.00;7.00;;;;;23.38;40.32;99404.22;5052702;28;46562;-61
2022/07/31 01:11:47;;;;;;;;;5.25;5.25;;;;;23.34;40.30;99400.94;5052926;28;45482;-61
2022/07/31 01:14:14;;;;;;;;;7.00;7.00;;;;;23.28;40.45;99402.38;5053578;28;45382;-62
2022/07/31 01:16:45;;;;;;;;;5.00;5.00;;;;;23.19;40.21;99403.16;5052364;28;45315;-61
2022/07/31 01:19:43;;;;;;;;;6.00;5.00;;;;;23.16;40.39;99407.94;5053272;28;47394;-61
2022/07/31 01:22:26;;;;;;;;;7.50;5.50;;;;;23.14;40.71;99407.22;5050883;28;45514;-61
2022/07/31 01:25:30;;;;;;;;;6.00;6.00;;;;;23.13;40.93;99402.81;5051123;28;45423;-61
2022/07/31 01:28:18;;;;;;;;;5.50;5.50;;;;;;;;5040818;28;45573;-61
2022/07/31 01:30:46;;;;;;;;;6.00;6.00;;;;;23.08;41.02;99405.94;5051725;28;46074;-62
2022/07/31 01:33:18;;;;;;;;;5.25;5.25;;;;;23.06;41.43;99407.91;5051968;28;45452;-62
2022/07/31 01:35:50;;;;;;;;;7.25;7.00;;;;;23.04;41.39;99409.88;5052932;28;45407;-60
2022/07/31 01:38:21;;;;;;;;;7.00;6.25;;;;;23.03;40.65;99407.31;5051065;28;45394;-62
2022/07/31 01:40:53;;;;;;;;;7.00;6.00;;;;;23.02;40.75;99411.84;5053720;28;45503;-63
2022/07/31 01:43:22;;;;;;;;;7.00;7.00;;;;;23.02;41.03;99416.38;5042871;28;45317;-62
2022/07/31 01:45:51;;;;;;;;;8.25;6.50;;;;;23.01;41.49;99410.13;5054619;28;45399;-62
2022/07/31 01:48:18;;;;;;;;;7.75;7.25;;;;;22.99;41.54;99414.78;5047714;28;45421;-62
2022/07/31 01:50:47;;;;;;;;;10.50;9.50;;;;;22.98;41.28;99415.78;5054175;28;45352;-62
2022/07/31 01:53:16;;;;;;;;;7.50;7.00;;;;;22.96;41.30;99415.91;5049943;28;45423;-62
2022/07/31 01:55:43;;;;;;;;;6.00;6.00;;;;;22.94;41.39;99417.91;5049436;28;45483;-62
2022/07/31 01:58:10;;;;;;;;;7.75;7.00;;;;;22.93;41.56;99426.09;5046286;28;45499;-62
2022/07/31 02:00:37;;;;;;;;;7.75;7.75;;;;;22.91;42.03;99420.84;5051368;28;46642;-62
2022/07/31 02:03:04;;;;;;;;;9.00;7.75;;;;;22.89;42.13;99421.97;5045792;28;45487;-62
2022/07/31 02:05:32;;;;;;;;;7.25;7.25;;;;;22.85;42.49;99421.38;5051015;28;45441;-62
2022/07/31 02:07:58;;;;;;;;;8.75;6.25;;;;;22.82;42.10;99424.31;5050991;28;45313;-62
2022/07/31 02:10:25;;;;;;;;;8.00;7.00;;;;;22.77;42.34;99423.88;5052029;28;45420;-62
2022/07/31 02:12:50;;;;;;;;;6.75;6.75;;;;;22.72;42.18;99419.84;5050275;28;45354;-62
2022/07/31 02:15:17;;;;;;;;;7.50;7.50;;;;;22.68;42.50;99426.44;5052809;28;45400;-62
2022/07/31 02:17:44;;;;;;;;;6.00;6.00;;;;;22.63;43.32;99427.69;5053093;28;45446;-62
2022/07/31 02:20:11;;;;;;;;;7.25;7.25;;;;;22.59;43.64;99430.78;5053743;28;45440;-61
2022/07/31 02:22:37;;;;;;;;;8.00;6.50;;;;;22.52;43.44;99433.13;5051671;28;45484;-62
2022/07/31 02:25:05;;;;;;;;;7.00;7.00;;;;;22.49;42.98;99446.81;5052448;28;45345;-62
2022/07/31 02:27:33;;;;;;;;;8.00;8.00;;;;;22.48;43.16;99444.25;5054486;28;45551;-62
2022/07/31 02:30:01;;;;;;;;;7.75;7.00;;;;;22.44;42.94;99435.63;5048488;28;46233;-61
2022/07/31 02:32:28;;;;;;;;;7.50;6.50;;;;;22.44;43.41;99438.31;5053601;28;45402;-62
2022/07/31 02:34:58;;;;;;;;;8.00;8.00;;;;;22.42;43.15;99429.50;5054905;28;45557;-62
2022/07/31 02:37:25;;;;;;;;;8.00;8.00;;;;;22.42;43.14;99437.56;5051619;28;45465;-62
2022/07/31 02:39:53;;;;;;;;;7.50;7.50;;;;;22.42;42.84;99432.19;5056115;28;45465;-62
2022/07/31 02:42:21;;;;;;;;;8.75;8.50;;;;;22.40;43.25;99439.53;5054181;28;45247;-62
2022/07/31 02:44:47;;;;;;;;;8.00;7.00;;;;;22.37;43.60;99441.63;5063285;28;45509;-62
2022/07/31 02:47:13;;;;;;;;;7.50;7.50;;;;;22.32;43.93;99444.69;5040791;28;45354;-62
2022/07/31 02:49:39;;;;;;;;;7.50;7.50;;;;;22.28;43.94;99437.88;5053369;28;45507;-62
2022/07/31 02:52:05;;;;;;;;;9.00;8.00;;;;;22.24;44.62;99431.06;5053561;28;45497;-62
2022/07/31 02:54:35;;;;;;;;;11.00;8.00;;;;;22.22;44.19;99433.84;5051007;28;45468;-62
2022/07/31 02:57:02;;;;;;;;;10.00;8.50;;;;;22.21;44.33;99431.31;5049516;28;45325;-62
2022/07/31 02:59:27;;;;;;;;;7.25;7.00;;;;;22.17;43.47;99430.69;5048091;28;46074;-62
2022/07/31 03:01:53;;;;;;;;;7.75;7.75;;;;;22.15;43.74;99434.47;5051719;28;45398;-62
2022/07/31 03:04:19;;;;;;;;;8.25;8.25;;;;;22.12;44.28;99435.59;5045332;28;45396;-62
2022/07/31 03:06:47;;;;;;;;;9.75;8.00;;;;;22.11;44.19;99433.91;5049254;28;45643;-62
2022/07/31 03:09:13;;;;;;;;;10.25;8.00;;;;;22.10;44.38;99444.78;5053997;28;47180;-61
2022/07/31 03:11:39;;;;;;;;;9.00;8.75;;;;;22.08;44.36;99439.53;5047357;28;45309;-62
2022/07/31 03:14:06;;;;;;;;;8.25;8.25;;;;;22.07;44.12;99431.59;5052317;28;45385;-62
2022/07/31 03:16:34;;;;;;;;;8.50;7.50;;;;;22.05;44.53;99439.78;5055837;28;45290;-61
2022/07/31 03:19:02;;;;;;;;;8.00;8.00;;;;;22.03;44.61;99436.34;5053456;28;46510;-62
2022/07/31 03:21:28;;;;;;;;;7.00;7.00;;;;;22.01;44.28;99437.47;5056714;28;45413;-62
2022/07/31 03:23:54;;;;;;;;;7.25;7.25;;;;;22.00;45.02;99438.44;5051239;28;45428;-62
2022/07/31 03:26:20;;;;;;;;;7.75;7.25;;;;;21.97;44.86;99428.75;5056409;28;45393;-61
2022/07/31 03:28:45;;;;;;;;;9.50;8.00;;;;;21.97;44.78;99433.28;5052559;28;45403;-62
2022/07/31 03:31:10;;;;;;;;;7.00;7.00;;;;;21.95;45.39;99430.75;5056608;28;45216;-61
2022/07/31 03:33:36;;;;;;;;;9.50;9.00;;;;;21.94;45.37;99426.34;5050703;28;45410;-62
2022/07/31 03:36:01;;;;;;;;;8.00;8.00;;;;;21.94;45.49;99432.56;5056156;28;45559;-62
2022/07/31 03:38:27;;;;;;;;;11.00;8.50;;;;;21.92;45.28;99433.69;5051179;28;45355;-61
2022/07/31 03:40:52;;;;;;;;;9.25;9.00;;;;;21.91;45.55;99430.13;5054589;28;45388;-61
2022/07/31 03:43:20;;;;;;;;;8.00;8.00;;;;;21.91;45.41;99432.81;5049876;28;45614;-61
2022/07/31 03:45:46;;;;;;;;;7.75;7.25;;;;;21.88;45.69;99441.13;5055943;28;45573;-61
2022/07/31 03:48:12;;;;;;;;;7.25;7.25;;;;;21.86;45.46;99442.22;5049488;28;45804;-61
2022/07/31 03:50:39;;;;;;;;;9.75;8.50;;;;;21.85;45.03;99441.38;5056059;28;45393;-61
2022/07/31 03:53:05;;;;;;;;;7.25;7.25;;;;;21.83;45.13;99437.09;5049829;28;45541;-61
2022/07/31 03:55:32;;;;;;;;;8.00;8.00;;;;;21.84;45.67;99444.16;5053162;28;45397;-61
2022/07/31 03:57:59;;;;;;;;;8.50;7.25;;;;;21.83;45.34;99437.09;5049140;28;45718;-62
2022/07/31 04:00:26;;;;;;;;;7.75;7.25;;;;;21.83;45.42;99437.09;5054671;28;45453;-61
2022/07/31 04:02:56;;;;;;;;;9.25;8.75;;;;;21.81;45.10;99437.22;5046767;28;45563;-62
2022/07/31 04:05:22;;;;;;;;;10.50;8.75;;;;;21.79;45.56;99438.31;5049879;28;45509;-61
2022/07/31 04:07:48;;;;;;;;;8.50;8.50;;;;;21.76;45.72;99439.44;5050951;28;47069;-61
2022/07/31 04:10:13;;;;;;;;;7.00;7.00;;;;;21.73;45.54;99444.19;5045639;28;45341;-61
2022/07/31 04:12:39;;;;;;;;;8.00;8.00;;;;;21.68;45.19;99436.50;5051466;28;45382;-61
2022/07/31 04:15:05;;;;;;;;;8.00;8.00;;;;;21.65;45.36;99444.81;5055343;28;45561;-61
2022/07/31 04:17:30;;;;;;;;;7.50;7.25;;;;;21.62;45.71;99442.34;5053042;28;45480;-61
2022/07/31 04:19:56;;;;;;;;;8.25;6.25;;;;;21.60;45.78;99441.66;5054391;28;45442;-61
2022/07/31 04:22:21;;;;;;;;;7.25;7.00;;;;;21.56;46.04;99449.09;5052650;28;45502;-61
2022/07/31 04:24:47;;;;;;;;;8.25;8.00;;;;;21.54;46.02;99445.69;5053063;28;45466;-61
2022/07/31 04:27:17;;;;;;;;;10.00;9.00;;;;;21.52;46.07;99450.31;5052310;28;46098;-61
2022/07/31 04:29:43;;;;;;;;;9.00;8.00;;;;;21.49;46.04;99452.38;5044262;28;45563;-61
2022/07/31 04:32:09;;;;;;;;;8.25;8.25;;;;;21.48;45.66;99453.34;5050822;28;45525;-61
2022/07/31 04:34:34;;;;;;;;;14.25;14.25;;;;;21.47;45.75;99451.63;5051218;28;45357;-61
2022/07/31 04:37:00;;;;;;;;;9.75;9.25;;;;;21.48;45.92;99459.56;5051485;28;45448;-61
2022/07/31 04:39:26;;;;;;;;;9.75;9.25;;;;;21.48;45.92;99456.88;5050747;28;45488;-62
2022/07/31 04:41:51;;;;;;;;;11.75;8.75;;;;;21.46;45.93;99453.47;5053115;28;45381;-61
2022/07/31 04:44:16;;;;;;;;;5.25;5.25;;;;;21.44;46.63;99459.97;5045649;28;45475;-62
2022/07/31 04:46:42;;;;;;;;;9.25;9.25;;;;;21.42;46.44;99459.22;5053263;28;46612;-61
2022/07/31 04:49:11;;;;;;;;;11.75;10.00;;;;;21.44;46.84;99468.00;5049952;28;45542;-61
2022/07/31 04:51:37;;;;;;;;;12.00;9.75;;;;;21.41;47.26;99463.72;5048914;28;45482;-62
2022/07/31 04:54:03;;;;;;;;;9.50;9.50;;;;;21.43;46.82;99461.78;5051284;28;45419;-61
2022/07/31 04:56:41;;;;;;;;;9.25;7.00;;;;;21.43;46.71;99459.09;5053117;28;45493;-61
2022/07/31 04:59:12;;;;;;;;;9.50;8.00;;;;;21.45;47.27;99459.81;5047323;28;45470;-62
2022/07/31 05:01:39;;;;;;;;;10.00;10.00;;;;;21.46;47.33;99464.19;5050857;28;45466;-61
2022/07/31 05:04:06;;;;;;;;;8.50;8.50;;;;;21.45;46.88;99458.97;5048562;28;45481;-61
2022/07/31 05:06:41;;;;;;;;;7.00;5.75;;;;;21.45;47.09;99465.16;5053945;28;45554;-61
2022/07/31 05:09:32;;;;;;;;;9.50;9.00;;;;;21.46;46.42;99466.03;5049697;28;45476;-61
2022/07/31 05:11:57;;;;;;;;;11.00;9.00;;;;;21.45;46.29;99465.16;5046304;28;45376;-61
2022/07/31 05:14:23;;;;;;;;;7.50;7.50;;;;;21.46;46.72;99469.56;5050958;28;45443;-61
2022/07/31 05:16:48;;;;;;;;;9.75;9.50;;;;;21.47;46.10;99473.09;5051706;28;45530;-61
2022/07/31 05:19:15;;;;;;;;;8.25;8.00;;;;;21.45;46.48;99470.53;5052791;28;45475;-62
2022/07/31 05:21:41;;;;;;;;;9.50;9.00;;;;;21.44;46.32;99471.53;5053250;28;45449;-62
2022/07/31 05:24:07;;;;;;;;;8.75;8.25;;;;;21.45;46.33;99469.72;5050364;28;45564;-62
2022/07/31 05:26:32;;;;;;;;;12.00;9.50;;;;;21.44;46.20;99463.50;5051459;28;46608;-61
2022/07/31 05:28:59;;;;;;;;;12.00;10.25;;;;;21.47;46.61;99471.28;5050297;28;45410;-61
2022/07/31 05:31:26;;;;;;;;;11.00;10.00;;;;;21.48;46.60;99459.56;5053946;28;45353;-62
2022/07/31 05:33:52;;;;;;;;;10.00;8.75;;;;;21.50;46.40;99462.97;5047832;28;45697;-61
2022/07/31 05:36:18;;;;;;;;;10.00;10.00;;;;;21.55;46.58;99465.31;5053518;28;46392;-61
2022/07/31 05:38:43;;;;;;;;;8.75;8.75;;;;;21.56;46.43;99467.88;5046875;28;45454;-61
2022/07/31 05:41:09;;;;;;;;;8.00;8.00;;;;;21.58;46.45;99473.97;5053893;28;45461;-61
2022/07/31 05:43:35;;;;;;;;;8.25;8.25;;;;;21.58;46.63;99478.50;5043521;28;45629;-61
2022/07/31 05:46:01;;;;;;;;;14.00;10.00;;;;;21.57;46.62;99474.94;5052965;28;45405;-61
2022/07/31 05:48:27;;;;;;;;;8.75;8.00;;;;;21.60;46.87;99479.22;5051213;28;45376;-61
2022/07/31 05:50:52;;;;;;;;;9.25;8.75;;;;;21.62;46.71;99477.25;5053647;28;45403;-61
2022/07/31 05:53:19;;;;;;;;;5.25;4.00;;;;;21.65;46.19;99477.00;5050640;28;45480;-61
2022/07/31 05:55:46;;;;;;;;;10.75;8.50;;;;;21.68;46.13;99474.06;5050155;28;45590;-61
2022/07/31 05:58:12;;;;;;;;;8.25;8.25;;;;;21.70;46.58;99474.81;5049666;28;45385;-61
2022/07/31 06:00:39;;;;;;;;;8.00;8.00;;;;;21.73;46.47;99469.22;5055900;28;45368;-61
2022/07/31 06:03:04;;;;;;;;;9.00;9.00;;;;;21.77;46.26;99470.69;5048115;28;45396;-61
2022/07/31 06:05:31;;;;;;;;;10.50;9.50;;;;;21.79;46.81;99471.38;5053409;28;46133;-62
2022/07/31 06:07:57;;;;;;;;;10.00;8.25;;;;;21.83;46.61;99477.34;5054187;28;45424;-61
2022/07/31 06:10:23;;;;;;;;;8.25;7.25;;;;;21.87;46.13;99473.47;5047168;28;45453;-61
2022/07/31 06:12:49;;;;;;;;;10.50;10.50;;;;;21.89;46.49;99468.81;5053117;28;45364;-61
2022/07/31 06:15:14;;;;;;;;;10.00;9.00;;;;;21.92;46.01;99474.81;5046325;28;45825;-61
2022/07/31 06:17:41;;;;;;;;;9.00;9.00;;;;;21.98;46.10;99470.75;5053661;28;45534;-61
2022/07/31 06:20:07;;;;;;;;;6.25;6.25;;;;;22.01;46.25;99472.34;5056203;28;45434;-61
2022/07/31 06:22:32;;;;;;;;;8.00;7.00;;;;;22.08;46.40;99468.22;5054522;28;45325;-61
2022/07/31 06:24:58;;;;;;;;;10.25;10.25;;;;;22.14;46.07;99468.53;5054321;28;45494;-58
2022/07/31 06:27:23;;;;;;;;;7.25;7.25;;;;;22.22;45.77;99465.25;5053446;28;45414;-55
2022/07/31 06:29:48;;;;;;;;;8.00;8.00;;;;;22.33;46.02;99467.03;5055628;28;45226;-56
2022/07/31 06:32:14;;;;;;;;;10.00;9.25;;;;;22.42;46.07;99460.91;5049694;28;45559;-56
2022/07/31 06:34:40;;;;;;;;;12.25;9.75;;;;;22.52;45.94;99467.19;5053747;28;46582;-56
2022/07/31 06:37:05;;;;;;;;;9.00;9.00;;;;;22.59;45.39;99469.25;5055043;28;45327;-55
2022/07/31 06:39:31;;;;;;;;;9.25;9.25;;;;;22.65;45.04;99467.88;5055450;28;45578;-55
2022/07/31 06:41:57;;;;;;;;;9.50;9.50;;;;;22.71;45.02;99463.81;5053286;28;45554;-56
2022/07/31 06:44:22;;;;;;;;;9.75;9.75;;;;;22.80;45.24;99468.44;5048442;28;46195;-54
2022/07/31 06:46:48;;;;;;;;;8.25;7.00;;;;;22.87;44.64;99465.09;5051364;28;45361;-56
2022/07/31 06:49:14;;;;;;;;;9.25;8.50;;;;;22.95;44.94;99467.16;5047904;28;45544;-51
2022/07/31 06:51:40;;;;;;;;;10.00;9.75;;;;;23.01;44.53;99474.69;5052021;28;45483;-55
2022/07/31 06:54:08;;;;;;;;;7.25;7.25;;;;;23.06;44.18;99466.22;5045588;27;45527;-55
2022/07/31 06:56:35;;;;;;;;;8.50;8.00;;;;;23.12;43.63;99469.25;5055000;28;45376;-54
2022/07/31 06:59:01;;;;;;;;;8.00;7.00;;;;;23.16;43.53;99473.34;5052772;28;45495;-55
2022/07/31 07:01:27;;;;;;;;;8.50;8.00;;;;;23.20;43.38;99472.13;5054237;28;45488;-56
2022/07/31 07:03:53;;;;;;;;;9.50;9.00;;;;;23.27;43.49;99469.75;5049690;28;45434;-56
2022/07/31 07:06:19;;;;;;;;;11.00;11.00;;;;;23.31;43.17;99469.34;5054016;28;45489;-56
2022/07/31 07:08:44;;;;;;;;;5.00;5.00;;;;;23.38;43.50;99471.50;5052109;28;45469;-55
2022/07/31 07:11:10;;;;;;;;;7.75;6.50;;;;;23.44;43.48;99462.91;5044392;28;45431;-56
2022/07/31 07:13:35;;;;;;;;;8.75;8.75;;;;;23.50;42.95;99459.66;5051296;28;45661;-54
2022/07/31 07:16:01;;;;;;;;;8.25;8.25;;;;;23.55;42.56;99455.59;5052454;28;45392;-53
2022/07/31 07:18:26;;;;;;;;;6.75;6.75;;;;;23.62;42.91;99453.25;5048850;27;45486;-54
2022/07/31 07:20:52;;;;;;;;;6.75;6.75;;;;;23.69;42.74;99457.06;5054414;28;45492;-55
2022/07/31 07:23:19;;;;;;;;;7.75;6.00;;;;;23.77;42.35;99470.72;5053445;28;46548;-54
2022/07/31 07:25:45;;;;;;;;;9.50;8.00;;;;;23.82;42.27;99465.75;5054639;28;45394;-55
2022/07/31 07:28:10;;;;;;;;;7.25;7.00;;;;;23.88;42.23;99470.59;5050428;28;45526;-53
2022/07/31 07:30:36;;;;;;;;;7.25;6.25;;;;;23.93;42.25;99465.66;5055382;28;45412;-55
2022/07/31 07:33:01;;;;;;;;;8.25;6.75;;;;;23.99;41.94;99472.31;5049584;28;46250;-55
2022/07/31 07:35:27;;;;;;;;;7.00;6.50;;;;;24.07;41.85;99477.03;5052365;28;45510;-54
2022/07/31 07:37:53;;;;;;;;;8.00;8.00;;;;;24.14;41.59;99472.78;5051743;28;45448;-55
2022/07/31 07:40:19;;;;;;;;;6.50;6.50;;;;;24.21;41.22;99465.84;5044043;28;45494;-59
2022/07/31 07:42:45;;;;;;;;;6.25;6.25;;;;;24.28;40.86;99459.81;5047270;28;45595;-59
2022/07/31 07:45:11;;;;;;;;;8.00;8.00;;;;;24.34;40.70;99453.00;5044411;28;45450;-59
2022/07/31 07:47:37;;;;;;;;;8.00;8.00;;;;;24.38;40.22;99454.44;5051828;28;45549;-59
2022/07/31 07:50:05;;;;;;;;;9.75;9.75;;;;;24.43;40.19;99452.16;5045147;28;45457;-59
2022/07/31 07:52:30;;;;;;;;;6.00;6.00;;;;;24.48;39.74;99446.31;5052382;28;47312;-59
2022/07/31 07:54:55;;;;;;;;;9.75;9.00;;;;;24.53;39.90;99447.63;5043265;28;45433;-59
2022/07/31 07:57:21;;;;;;;;;7.50;7.50;;;;;24.56;39.75;99450.03;5047125;28;45388;-58
2022/07/31 07:59:47;;;;;;;;;8.50;8.00;;;;;24.61;39.86;99445.06;5046555;28;45432;-57
2022/07/31 08:02:13;;;;;;;;;7.75;7.75;;;;;24.68;39.71;99450.72;5052147;28;46194;-57
2022/07/31 08:04:39;;;;;;;;;8.50;8.25;;;;;24.73;40.05;99440.38;5051114;28;45267;-58
2022/07/31 08:07:04;;;;;;;;;7.00;7.00;;;;;24.76;40.10;99445.50;5053587;28;45562;-59
2022/07/31 08:09:31;;;;;;;;;8.25;8.00;;;;;24.80;39.96;99444.19;5046810;28;45486;-59
2022/07/31 08:11:56;;;;;;;;;8.25;7.50;;;;;24.83;39.74;99440.34;5046813;28;45405;-60
2022/07/31 08:14:21;;;;;;;;;8.00;7.50;;;;;24.85;39.70;99435.66;5047527;28;45425;-59
2022/07/31 08:16:47;;;;;;;;;7.00;7.00;;;;;24.87;39.43;99429.13;5045642;28;45433;-59
2022/07/31 08:19:12;;;;;;;;;7.00;7.00;;;;;24.91;39.46;99437.78;5052333;28;45562;-59
2022/07/31 08:21:38;;;;;;;;;7.75;7.75;;;;;24.94;39.73;99432.16;5054159;28;46564;-59
2022/07/31 08:24:05;;;;;;;;;7.50;6.00;;;;;24.98;39.42;99434.38;5051945;28;45586;-58
2022/07/31 08:27:22;;;;;;;;;27.50;24.25;;;;;25.03;39.42;99421.31;5054222;28;45451;-59
2022/07/31 08:29:17;;;;;;;;;9.00;8.25;;;;;25.10;38.99;99420.75;5052293;28;45527;-59
2022/07/31 08:31:42;;;;;;;;;8.25;7.00;;;;;25.15;38.42;99422.00;5053631;28;45566;-59
2022/07/31 08:34:08;;;;;;;;;9.00;7.00;;;;;25.22;39.02;99419.56;5048914;28;45410;-59
2022/07/31 08:36:34;;;;;;;;;6.50;6.00;;;;;25.29;38.44;99416.16;5054479;28;45562;-59
2022/07/31 08:39:00;;;;;;;;;6.00;6.00;;;;;25.34;38.67;99408.44;5047983;28;45545;-59
2022/07/31 08:41:25;;;;;;;;;7.50;6.75;;;;;25.40;38.53;99409.69;5051141;28;45460;-59
2022/07/31 08:43:51;;;;;;;;;6.75;6.75;;;;;25.46;38.33;99402.88;5045650;28;45533;-59
2022/07/31 08:46:17;;;;;;;;;7.00;7.00;;;;;25.51;38.20;99398.69;5054581;28;45571;-59
2022/07/31 08:48:44;;;;;;;;;7.00;7.00;;;;;25.58;37.91;99398.97;5047306;28;45452;-59
2022/07/31 08:51:11;;;;;;;;;8.75;7.50;;;;;25.64;37.76;99401.06;5054204;28;45499;-59
2022/07/31 08:53:38;;;;;;;;;6.20;5.20;;;;;25.70;37.13;99397.78;5047534;28;45564;-59
2022/07/31 08:56:07;;;;;;;;;6.75;6.75;;;;;25.76;37.41;99385.53;5053792;28;45459;-59
2022/07/31 08:58:32;;;;;;;;;7.00;7.00;;;;;25.83;37.13;99383.91;5046341;28;45581;-58
2022/07/31 09:00:58;;;;;;;;;7.00;7.00;;;;;25.89;36.81;99389.56;5051628;28;45345;-59
2022/07/31 09:03:24;;;;;;;;;8.00;8.00;;;;;25.93;36.84;99390.97;5048056;28;45463;-59
2022/07/31 09:05:49;;;;;;;;;7.00;7.00;;;;;25.98;36.77;99383.22;5050432;28;45429;-59
2022/07/31 09:08:15;;;;;;;;;10.00;9.00;;;;;26.04;36.51;99385.34;5050708;28;45447;-59
2022/07/31 09:10:41;;;;;;;;;7.00;7.00;;;;;26.07;36.40;99371.53;5043720;28;46190;-59
2022/07/31 09:13:17;;;;;;;;;6.75;6.75;;;;;26.13;36.66;99372.78;5049025;28;45543;-59
2022/07/31 09:15:42;;;;;;;;;4.00;4.00;;;;;26.18;36.50;99375.00;5041940;28;45659;-59
2022/07/31 09:18:20;;;;;;;;;7.00;7.00;;;;;26.25;36.39;99365.28;5030357;28;45441;-59
2022/07/31 09:20:55;;;;;;;;;9.00;8.00;;;;;26.31;36.20;99359.28;5050850;28;45433;-59
2022/07/31 09:23:22;;;;;;;;;7.00;6.75;;;;;26.37;36.03;99370.31;5051294;28;45400;-59
2022/07/31 09:25:54;;;;;;;;;11.00;9.50;;;;;26.44;36.14;99369.69;5053789;28;45395;-60
2022/07/31 09:28:29;;;;;;;;;7.00;7.00;;;;;26.48;35.80;99371.91;5052200;28;45534;-58
2022/07/31 09:30:55;;;;;;;;;7.00;7.00;;;;;26.50;35.51;99375.31;5051624;28;47027;-58
2022/07/31 09:33:20;;;;;;;;;8.00;7.75;;;;;26.52;35.60;99373.31;5049880;28;45465;-57
2022/07/31 09:35:50;;;;;;;;;8.25;7.75;;;;;26.54;36.03;99376.69;5036396;28;45581;-59
2022/07/31 09:38:17;;;;;;;;;10.00;10.00;;;;;26.56;35.61;99380.09;5049709;28;45547;-59
2022/07/31 09:40:42;;;;;;;;;10.50;9.25;;;;;26.59;35.58;99370.81;5049511;28;46165;-59
2022/07/31 09:43:18;;;;;;;;;8.75;8.75;;;;;26.63;35.77;99370.38;5049142;28;45531;-59
2022/07/31 09:45:59;;;;;;;;;8.50;8.50;;;;;26.70;35.80;99366.00;5050098;28;45576;-59
2022/07/31 09:48:25;;;;;;;;;8.75;8.75;;;;;26.80;36.05;99367.78;5047051;28;45428;-58
2022/07/31 09:50:59;;;;;;;;;6.50;6.50;;;;;26.89;35.71;99362.25;5052914;28;46452;-59
2022/07/31 09:53:25;;;;;;;;;10.00;9.00;;;;;26.98;35.43;99366.72;5045998;28;45430;-57
2022/07/31 09:55:52;;;;;;;;;6.75;6.50;;;;;27.05;35.50;99361.53;5053441;28;45427;-60
2022/07/31 09:58:18;;;;;;;;;9.75;9.75;;;;;27.13;35.52;99361.59;5046317;28;45501;-57
2022/07/31 10:00:46;;;;;;;;;10.00;9.00;;;;;27.22;35.40;99359.75;5052104;28;47597;-59
2022/07/31 10:03:13;;;;;;;;;8.00;8.00;;;;;27.30;35.50;99348.97;5044101;28;45415;-59
2022/07/31 10:05:41;;;;;;;;;7.25;7.25;;;;;27.37;35.17;99347.31;5050339;28;45471;-59
2022/07/31 10:08:07;;;;;;;;;9.50;9.50;;;;;27.44;35.03;99354.63;5042089;28;45514;-59
2022/07/31 10:10:34;;;;;;;;;7.75;7.75;;;;;27.53;34.82;99352.78;5039486;28;46526;-59
2022/07/31 10:13:04;;;;;;;;;9.75;7.50;;;;;27.62;34.78;99346.44;5050164;28;45494;-59
2022/07/31 10:15:32;;;;;;;;;7.75;7.75;;;;;27.72;34.80;99347.13;5041540;28;45414;-59
2022/07/31 10:17:57;;;;;;;;;7.25;7.25;;;;;27.82;34.03;99341.53;5050435;28;45522;-59
2022/07/31 10:20:25;;;;;;;;;7.75;7.75;;;;;27.91;34.23;99339.72;5053139;28;45716;-59
2022/07/31 10:23:14;;;;;;;;;7.50;7.50;;;;;28.03;33.94;99343.78;5050455;28;45436;-59
2022/07/31 10:25:46;;;;;;;;;5.25;5.25;;;;;28.14;34.21;99335.34;5052539;28;45412;-59
2022/07/31 10:28:12;;;;;;;;;8.25;7.50;;;;;28.22;32.82;99340.81;5048899;28;45527;-59
2022/07/31 10:30:38;;;;;;;;;6.50;5.50;;;;;28.28;33.22;99325.72;5051512;28;47868;-59
2022/07/31 10:33:06;;;;;;;;;8.25;7.00;;;;;28.36;33.53;99328.44;5042282;28;45367;-58
2022/07/31 10:35:40;;;;;;;;;8.00;8.00;;;;;28.48;32.51;99327.09;5049309;28;45486;-58
2022/07/31 10:38:21;;;;;;;;;9.00;9.00;;;;;28.55;32.42;99327.22;5052199;28;45536;-59
2022/07/31 10:41:02;;;;;;;;;6.00;6.00;;;;;28.64;31.92;99326.22;5052793;28;45490;-57
2022/07/31 10:43:40;;;;;;;;;6.00;5.20;;;;;28.71;32.04;99321.78;5044395;28;45458;-59
2022/07/31 10:46:06;;;;;;;;;7.00;7.00;;;;;28.78;32.16;99315.50;5054692;28;45520;-57
2022/07/31 10:48:31;;;;;;;;;6.00;6.00;;;;;28.90;31.60;99302.44;5043656;28;45251;-57
2022/07/31 10:51:14;;;;;;;;;7.50;7.50;;;;;29.06;31.73;99288.81;5049387;28;46610;-57
2022/07/31 10:53:40;;;;;;;;;5.40;5.40;;;;;29.20;31.30;99284.50;5046618;28;45405;-57
2022/07/31 10:56:12;;;;;;;;;6.50;6.50;;;;;29.32;31.46;99279.56;5055073;28;45521;-58
2022/07/31 10:58:49;;;;;;;;;6.25;6.25;;;;;29.45;31.25;99286.13;5045134;28;45646;-57
2022/07/31 11:01:14;;;;;;;;;5.00;5.00;;;;;29.55;31.73;99275.03;5050221;28;46382;-57
2022/07/31 11:03:45;;;;;;;;;6.00;6.00;;;;;29.58;31.18;99271.13;5049616;28;45403;-58
2022/07/31 11:06:12;;;;;;;;;6.75;6.50;;;;;29.65;31.55;99266.66;5048705;28;45495;-57
2022/07/31 11:08:50;;;;;;;;;7.00;6.00;;;;;29.75;31.33;99269.97;5049248;28;45632;-57
2022/07/31 11:11:16;;;;;;;;;3.00;3.00;;;;;29.88;31.01;99266.66;5044579;28;45460;-57
2022/07/31 11:13:49;;;;;;;;;6.50;6.50;;;;;29.97;30.52;99269.19;5049629;28;45381;-57
2022/07/31 11:16:15;;;;;;;;;7.00;6.00;;;;;29.98;30.31;99270.03;5042757;28;45385;-57
2022/07/31 11:18:41;;;;;;;;;5.00;5.00;;;;;29.99;30.33;99266.28;5053878;28;45435;-57
2022/07/31 11:21:08;;;;;;;;;5.50;5.25;;;;;30.00;30.86;99262.50;5053359;28;46591;-58
2022/07/31 11:23:35;;;;;;;;;7.75;6.00;;;;;30.02;31.08;99264.03;5045388;28;45383;-57
2022/07/31 11:26:03;;;;;;;;;7.00;7.00;;;;;30.09;30.27;99269.59;5052374;28;45440;-57
2022/07/31 11:28:29;;;;;;;;;8.25;8.25;;;;;30.12;30.87;99253.75;5052640;28;45415;-58
2022/07/31 11:31:06;;;;;;;;;4.25;4.00;;;;;30.16;30.40;99255.06;5053625;28;46510;-57
2022/07/31 11:33:37;;;;;;;;;5.00;5.00;;;;;30.20;30.44;99244.66;5048842;28;45494;-57